Pagina principale
METAR-TAF:

METAR-TAF

Aeroporti :

Entrammes

Laval, Francia

latitudine: 48-01-56N, longitudine: 000-44-34W, altezza: 101 m

Osservazione

Il bollettino è stato emesso 21 minuti fa, alle 06:00 UTC
Vento 7 kt da est/nord-est
Temperature 22°C
Umidità 83%
Pressione 1020 hPa
Visibilità 10 km o più
nessuna nube inferiore a 1500 m e nessun cumulonembo

METAR: LFOV 270600Z AUTO 06007KT CAVOK 22/19 Q1020

Ora: 08:21 (06:21 UTC)


TAF: mancante

Osservazioni e previsioni meteorologiche di più di 4000 aeroporti (messaggi METAR e TAF).

Le stazioni disponibili sono rappresentate dai dischi gialli e rossi sulla carta.

Puntare il mouse per vedere il nome della stazione.

Clicca sopra per visualizzare le osservazioni e previsioni meteorologiche.

Per cambiare la mappa : fare clic sui pulsanti verdi con una croce nera per ingrandire, il pulsante verde con un trattino per diminuire, o sulla freccia verde per le mappe adiacenti.


METAR-TAF: